Cathy — WDF2373 — position and weather

sailwx.info

Track history (hours):
 
Tides and Currents Weather Stations Pressure Air Temp Water Temp Dewpoint Dewpoint Depression Visibility Wind Speed Wind Dir Waves Ship Positions

Cathy

Owner: Enterprise Marine Services, LLC, San Antonio, TX. More information available from US FCC via Universal Licensing System and Coast Guard Vessel Documentation Center.

Last reported at 2017-Dec-03 10:27 UTC. Time now 2017-Dec-13 01:49 UTC.
Position N 29°30' W 094°32'.
Warning: this ship's position is 9 days out of date.

Length 23 m; draft 2.7 m.

Type: Tug. MMSI: 367017940.

Date/timePositionNaut miles runAvg speedWind from/ knotsBaromVisibWave heightAir tempDewpointWater temp
2017-Dec-03 10:27N 29°30' W 094°32'0 0.0
2017-Dec-03 09:59N 29°30' W 094°32'0 0.1
2017-Dec-03 09:30N 29°30' W 094°32'0 0.0
2017-Dec-03 08:59N 29°30' W 094°32'0 0.0
2017-Dec-03 08:29N 29°30' W 094°32'0 0.0
2017-Dec-03 08:00N 29°30' W 094°32'0 0.4
2017-Dec-03 07:24N 29°30' W 094°32'0 0.0
2017-Dec-03 06:53N 29°30' W 094°32'0 0.0
2017-Dec-03 06:30N 29°30' W 094°32'0 0.1
2017-Dec-03 05:51N 29°30' W 094°32'0 0.0
2017-Dec-03 05:22N 29°30' W 094°32'0 0.1
2017-Dec-03 05:00N 29°30' W 094°33'8 5.0
2017-Dec-03 03:23N 29°27' W 094°41'3 4.7
2017-Dec-03 02:45N 29°25' W 094°44'9 3.7
2017-Dec-03 00:20N 29°30' W 094°52'3 7.1
2017-Dec-02 23:57N 29°32' W 094°54'3 6.9
2017-Dec-02 23:30N 29°35' W 094°56'4 7.6
2017-Dec-02 22:59N 29°38' W 094°58'3 7.1
2017-Dec-02 22:30N 29°42' W 094°59'3 0.1
2017-Dec-01 21:54N 29°44' W 095°01'1 0.0
2017-Nov-30 00:20N 29°43' W 095°01'2 6.2
2017-Nov-30 00:00N 29°42' W 094°59'4 7.2
2017-Nov-29 23:30N 29°38' W 094°58'3 6.7
2017-Nov-29 22:59N 29°35' W 094°56'3 7.1
2017-Nov-29 22:30N 29°32' W 094°54'  
Track history (hours):
 
Tides and Currents Weather Stations Pressure Air Temp Water Temp Dewpoint Dewpoint Depression Visibility Wind Speed Wind Dir Waves Ship Positions

Cathy

Owner: Enterprise Marine Services, LLC, San Antonio, TX. More information available from US FCC via Universal Licensing System and Coast Guard Vessel Documentation Center.

Last reported at 2017-Dec-03 10:27 UTC. Time now 2017-Dec-13 01:49 UTC.
Position N 29°30' W 094°32'.
Warning: this ship's position is 9 days out of date.

Length 23 m; draft 2.7 m.

Type: Tug. MMSI: 367017940.

Date/timePositionNaut miles runAvg speedWind from/ knotsBaromVisibWave heightAir tempDewpointWater temp
2017-Dec-03 10:27N 29°30' W 094°32'0 0.0
2017-Dec-03 09:59N 29°30' W 094°32'0 0.1
2017-Dec-03 09:30N 29°30' W 094°32'0 0.0
2017-Dec-03 08:59N 29°30' W 094°32'0 0.0
2017-Dec-03 08:29N 29°30' W 094°32'0 0.0
2017-Dec-03 08:00N 29°30' W 094°32'0 0.4
2017-Dec-03 07:24N 29°30' W 094°32'0 0.0
2017-Dec-03 06:53N 29°30' W 094°32'0 0.0
2017-Dec-03 06:30N 29°30' W 094°32'0 0.1
2017-Dec-03 05:51N 29°30' W 094°32'0 0.0
2017-Dec-03 05:22N 29°30' W 094°32'0 0.1
2017-Dec-03 05:00N 29°30' W 094°33'8 5.0
2017-Dec-03 03:23N 29°27' W 094°41'3 4.7
2017-Dec-03 02:45N 29°25' W 094°44'9 3.7
2017-Dec-03 00:20N 29°30' W 094°52'3 7.1
2017-Dec-02 23:57N 29°32' W 094°54'3 6.9
2017-Dec-02 23:30N 29°35' W 094°56'4 7.6
2017-Dec-02 22:59N 29°38' W 094°58'3 7.1
2017-Dec-02 22:30N 29°42' W 094°59'3 0.1
2017-Dec-01 21:54N 29°44' W 095°01'1 0.0
2017-Nov-30 00:20N 29°43' W 095°01'2 6.2
2017-Nov-30 00:00N 29°42' W 094°59'4 7.2
2017-Nov-29 23:30N 29°38' W 094°58'3 6.7
2017-Nov-29 22:59N 29°35' W 094°56'3 7.1
2017-Nov-29 22:30N 29°32' W 094°54'  

Dump ship's entire track history